Time;durP1;ratioP1;P1;durP2;ratioP2;P2;SDS_P1;SDS_P2;PMS_P1;PMS_P2;Temp;Humidity;BMP_temperature;BMP_pressure;BME280_temperature;BME280_humidity;BME280_pressure;Samples;Min_cycle;Max_cycle;Signal;HPM_P1;HPM_P2
2022/05/26 00:02:00;;;;;;;3.10;2.70;;;19.00;99.90;;;;;;5078639;28;20414;-70
2022/05/26 00:04:27;;;;;;;5.37;2.87;;;19.00;99.90;;;;;;5078990;28;20467;-75
2022/05/26 00:06:53;;;;;;;4.37;3.20;;;18.90;99.90;;;;;;5078523;28;20843;-75
2022/05/26 00:09:23;;;;;;;5.23;3.60;;;18.90;99.90;;;;;;5078674;28;20516;-70
2022/05/26 00:11:51;;;;;;;5.00;3.80;;;18.90;99.90;;;;;;5078725;28;20767;-70
2022/05/26 00:14:17;;;;;;;4.77;3.33;;;18.80;99.90;;;;;;5078544;28;20546;-70
2022/05/26 00:16:46;;;;;;;5.47;3.30;;;18.80;99.90;;;;;;5078030;28;20511;-74
2022/05/26 00:19:15;;;;;;;3.87;3.47;;;18.80;99.90;;;;;;5078536;28;20436;-70
2022/05/26 00:21:46;;;;;;;4.97;3.47;;;18.70;99.90;;;;;;5096477;28;20505;-70
2022/05/26 00:24:13;;;;;;;4.20;3.10;;;18.70;99.90;;;;;;5078487;28;20777;-70
2022/05/26 00:26:40;;;;;;;3.80;2.77;;;18.60;99.90;;;;;;5078166;28;20496;-70
2022/05/26 00:29:07;;;;;;;5.23;3.40;;;18.60;99.90;;;;;;5078380;28;20502;-75
2022/05/26 00:31:35;;;;;;;4.20;3.37;;;18.60;99.90;;;;;;5078895;28;20397;-70
2022/05/26 00:34:02;;;;;;;4.00;3.17;;;18.60;99.90;;;;;;5078164;28;21532;-74
2022/05/26 00:36:37;;;;;;;4.17;3.20;;;18.60;99.90;;;;;;5078266;28;20480;-75
2022/05/26 00:39:26;;;;;;;5.07;3.57;;;18.50;99.90;;;;;;5077980;28;20454;-70
2022/05/26 00:41:55;;;;;;;5.17;3.07;;;18.50;99.90;;;;;;5078576;28;20813;-74
2022/05/26 00:44:22;;;;;;;5.43;2.90;;;18.50;99.90;;;;;;5077089;28;20478;-71
2022/05/26 00:47:04;;;;;;;4.93;3.43;;;18.50;99.90;;;;;;5078007;28;20429;-70
2022/05/26 00:49:45;;;;;;;7.00;3.77;;;18.50;99.90;;;;;;5095937;28;21057;-70
2022/05/26 00:52:18;;;;;;;8.33;3.80;;;18.50;99.90;;;;;;5077998;28;20435;-70
2022/05/26 00:54:47;;;;;;;5.80;4.00;;;18.40;99.90;;;;;;5077794;28;20463;-69
2022/05/26 00:57:20;;;;;;;4.73;3.10;;;18.40;99.90;;;;;;5077778;28;20405;-75
2022/05/26 01:00:03;;;;;;;3.63;3.00;;;18.40;99.90;;;;;;5077513;28;20539;-74
2022/05/26 01:02:35;;;;;;;5.03;3.33;;;18.40;99.90;;;;;;5077686;28;20408;-70
2022/05/26 01:05:21;;;;;;;5.10;3.00;;;18.40;99.90;;;;;;5076715;28;20476;-74
2022/05/26 01:07:48;;;;;;;4.67;3.70;;;18.30;99.90;;;;;;5077503;28;20425;-70
2022/05/26 01:10:16;;;;;;;8.17;4.07;;;18.30;99.90;;;;;;5077443;28;20794;-74
2022/05/26 01:12:42;;;;;;;4.00;3.10;;;18.30;99.90;;;;;;5077821;28;20453;-70
2022/05/26 01:15:20;;;;;;;5.97;3.80;;;18.30;99.90;;;;;;5077234;28;20828;-74
2022/05/26 01:18:26;;;;;;;5.60;3.10;;;18.30;99.90;;;;;;5077417;28;20810;-70
2022/05/26 01:21:01;;;;;;;3.50;2.60;;;18.30;99.90;;;;;;5063686;28;20476;-70
2022/05/26 01:23:52;;;;;;;5.27;3.63;;;18.30;99.90;;;;;;5057188;28;20516;-74
2022/05/26 01:26:33;;;;;;;3.93;3.53;;;18.30;99.90;;;;;;5057150;28;20457;-70
2022/05/26 01:29:25;;;;;;;6.50;3.33;;;18.30;99.90;;;;;;5074194;28;20462;-70
2022/05/26 01:32:00;;;;;;;5.10;3.20;;;18.30;99.90;;;;;;5074965;28;20518;-75
2022/05/26 01:34:59;;;;;;;3.90;3.07;;;18.20;99.90;;;;;;5056897;28;20463;-75
2022/05/26 01:37:45;;;;;;;6.43;3.33;;;18.20;99.90;;;;;;5075254;28;20467;-75
2022/05/26 01:40:58;;;;;;;3.97;2.83;;;18.20;99.90;;;;;;5075147;28;20446;-75
2022/05/26 01:43:54;;;;;;;3.30;3.00;;;18.20;99.90;;;;;;5050186;28;20472;-70
2022/05/26 01:46:29;;;;;;;4.63;2.47;;;18.20;99.90;;;;;;5057334;28;20429;-70
2022/05/26 01:49:19;;;;;;;3.10;2.40;;;18.20;99.90;;;;;;5056874;28;20540;-75
2022/05/26 01:51:57;;;;;;;4.10;2.43;;;18.20;99.90;;;;;;5044909;28;20414;-75
2022/05/26 01:54:47;;;;;;;3.47;2.40;;;18.20;99.90;;;;;;5056890;28;20545;-70
2022/05/26 01:57:24;;;;;;;3.20;2.20;;;18.20;99.90;;;;;;5056550;28;20563;-74
2022/05/26 01:59:55;;;;;;;2.73;2.07;;;18.20;99.90;;;;;;5055967;28;20452;-74
2022/05/26 02:02:28;;;;;;;3.10;2.40;;;18.20;99.90;;;;;;5074674;28;20391;-75
2022/05/26 02:05:16;;;;;;;2.47;1.90;;;18.20;99.90;;;;;;5056341;28;20450;-70
2022/05/26 02:07:51;;;;;;;3.93;2.57;;;18.20;99.90;;;;;;5056255;28;20930;-70
2022/05/26 02:10:40;;;;;;;3.57;2.33;;;18.20;99.90;;;;;;5056218;28;20946;-75
2022/05/26 02:13:12;;;;;;;3.47;2.90;;;18.10;99.90;;;;;;5056625;28;20489;-70
2022/05/26 02:15:55;;;;;;;4.43;2.50;;;18.20;99.90;;;;;;5056267;28;20454;-74
2022/05/26 02:18:27;;;;;;;3.63;2.80;;;18.10;99.90;;;;;;5056469;28;20406;-75
2022/05/26 02:20:57;;;;;;;1.90;1.80;;;18.10;99.90;;;;;;5065466;28;20520;-69
2022/05/26 02:23:33;;;;;;;2.30;1.90;;;18.10;99.90;;;;;;5076497;28;20472;-75
2022/05/26 02:26:03;;;;;;;3.47;2.00;;;18.10;99.90;;;;;;5075975;28;20501;-70
2022/05/26 02:29:51;;;;;;;2.80;2.30;;;18.10;99.90;;;;;;5075847;28;20456;-70
2022/05/26 02:31:26;;;;;;;2.17;1.80;;;18.10;99.90;;;;;;5094236;28;20447;-74
2022/05/26 02:33:56;;;;;;;4.07;2.60;;;18.10;99.90;;;;;;5075899;28;20397;-70
2022/05/26 02:36:24;;;;;;;3.50;2.50;;;18.10;99.90;;;;;;5075997;28;20397;-75
2022/05/26 02:38:51;;;;;;;2.60;2.40;;;18.00;99.90;;;;;;5075756;28;20416;-74
2022/05/26 02:41:23;;;;;;;3.70;2.40;;;18.00;99.90;;;;;;5075806;28;20409;-69
2022/05/26 02:43:51;;;;;;;3.43;2.20;;;18.00;99.90;;;;;;5075748;28;20424;-70
2022/05/26 02:46:29;;;;;;;3.40;2.73;;;18.00;99.90;;;;;;5076115;28;20452;-69
2022/05/26 02:49:17;;;;;;;4.57;2.60;;;18.00;99.90;;;;;;5075638;28;20477;-74
2022/05/26 02:52:03;;;;;;;4.27;2.60;;;17.90;99.90;;;;;;5074867;28;20436;-70
2022/05/26 02:55:04;;;;;;;3.23;2.47;;;17.90;99.90;;;;;;5093848;28;20824;-72
2022/05/26 02:57:33;;;;;;;2.57;2.37;;;17.90;99.90;;;;;;5058659;28;20964;-75
2022/05/26 03:00:18;;;;;;;6.03;2.40;;;17.80;99.90;;;;;;5075525;28;20601;-70
2022/05/26 03:03:07;;;;;;;2.63;2.30;;;17.80;99.90;;;;;;5075788;28;20425;-70
2022/05/26 03:05:43;;;;;;;3.47;2.13;;;17.80;99.90;;;;;;5075712;28;20836;-75
2022/05/26 03:08:11;;;;;;;2.90;2.57;;;17.80;99.90;;;;;;5094183;28;20568;-74
2022/05/26 03:10:37;;;;;;;4.50;2.53;;;17.80;99.90;;;;;;5075456;28;20449;-70
2022/05/26 03:13:10;;;;;;;4.47;2.60;;;17.80;99.90;;;;;;5075677;28;20474;-74
2022/05/26 03:15:37;;;;;;;2.43;2.23;;;17.90;99.90;;;;;;5075603;28;20451;-70
2022/05/26 03:18:04;;;;;;;3.63;2.53;;;17.90;99.90;;;;;;5075914;28;20810;-70
2022/05/26 03:20:30;;;;;;;2.57;2.10;;;17.90;99.90;;;;;;5075290;28;20443;-70
2022/05/26 03:22:59;;;;;;;3.17;2.03;;;17.90;99.90;;;;;;5075717;28;20498;-75
2022/05/26 03:25:26;;;;;;;2.17;1.97;;;17.90;99.90;;;;;;5075567;28;20453;-70
2022/05/26 03:27:54;;;;;;;5.47;2.40;;;17.90;99.90;;;;;;5075291;28;20513;-75
2022/05/26 03:30:20;;;;;;;3.30;2.73;;;17.90;99.90;;;;;;5075280;28;20431;-75
2022/05/26 03:32:46;;;;;;;2.17;1.97;;;18.00;99.90;;;;;;5075390;28;20413;-74
2022/05/26 03:40:57;;;;;;;3.17;2.10;;;17.90;99.90;;;;;;5093988;28;20465;-70
2022/05/26 03:43:29;;;;;;;2.70;2.50;;;17.90;99.90;;;;;;5075390;28;20913;-70
2022/05/26 03:46:01;;;;;;;4.80;2.40;;;17.90;99.90;;;;;;5075439;28;20853;-70
2022/05/26 03:48:31;;;;;;;3.97;2.30;;;18.00;99.90;;;;;;5075741;28;20477;-70
2022/05/26 03:50:59;;;;;;;3.20;2.77;;;18.00;99.90;;;;;;5075488;28;20538;-69
2022/05/26 03:53:29;;;;;;;5.00;2.97;;;18.00;99.90;;;;;;5078677;28;20439;-74
2022/05/26 03:55:55;;;;;;;3.53;2.50;;;18.00;99.90;;;;;;5079179;28;20449;-69
2022/05/26 03:58:21;;;;;;;3.10;2.40;;;18.00;99.90;;;;;;5078662;28;20519;-69
2022/05/26 04:00:47;;;;;;;2.60;2.40;;;18.00;99.90;;;;;;5078726;28;20476;-72
2022/05/26 04:03:15;;;;;;;8.80;5.07;;;18.00;99.90;;;;;;5078803;28;20514;-69
2022/05/26 04:05:41;;;;;;;24.63;12.60;;;18.00;99.90;;;;;;5078272;28;20445;-69
2022/05/26 04:08:08;;;;;;;5.87;3.37;;;18.00;99.90;;;;;;5078542;28;20464;-74
2022/05/26 04:10:36;;;;;;;2.80;2.30;;;18.10;99.90;;;;;;5078505;28;20968;-75
2022/05/26 04:13:03;;;;;;;5.03;2.97;;;18.10;99.90;;;;;;5078579;28;20797;-69
2022/05/26 04:15:30;;;;;;;3.33;2.77;;;18.00;99.90;;;;;;5096882;28;20429;-69
2022/05/26 04:17:57;;;;;;;2.93;2.40;;;18.00;99.90;;;;;;5078481;28;20401;-70
2022/05/26 04:20:25;;;;;;;5.40;2.37;;;18.00;99.90;;;;;;5078308;28;20895;-70
2022/05/26 04:22:56;;;;;;;2.53;2.20;;;18.00;99.90;;;;;;5078633;28;20413;-69
2022/05/26 04:25:25;;;;;;;3.57;2.70;;;18.00;99.90;;;;;;5078108;28;20988;-69
2022/05/26 04:27:56;;;;;;;3.13;2.57;;;18.10;99.90;;;;;;5077979;28;20431;-74
2022/05/26 04:30:23;;;;;;;4.60;2.97;;;18.10;99.90;;;;;;5078473;28;20499;-75
2022/05/26 04:32:52;;;;;;;2.73;2.53;;;18.10;99.90;;;;;;5078217;28;20432;-69
2022/05/26 04:35:18;;;;;;;3.53;2.30;;;18.10;99.90;;;;;;5078115;28;20799;-75
2022/05/26 04:37:45;;;;;;;3.90;2.70;;;18.00;99.90;;;;;;5078365;28;20417;-69
2022/05/26 04:40:14;;;;;;;2.93;2.60;;;18.10;99.90;;;;;;5078379;28;20437;-69
2022/05/26 04:42:43;;;;;;;3.57;2.73;;;18.10;99.90;;;;;;5078255;28;20545;-69
2022/05/26 04:45:12;;;;;;;3.63;2.63;;;18.10;99.90;;;;;;5078324;28;20593;-69
2022/05/26 04:47:38;;;;;;;2.70;2.30;;;18.20;99.90;;;;;;5078257;28;20457;-69
2022/05/26 04:50:05;;;;;;;3.63;2.23;;;18.20;99.90;;;;;;5077994;28;20901;-75
2022/05/26 04:52:33;;;;;;;3.30;2.57;;;18.30;99.90;;;;;;5077683;28;20428;-69
2022/05/26 04:55:01;;;;;;;5.33;2.77;;;18.30;99.90;;;;;;5076259;28;20469;-69
2022/05/26 04:57:28;;;;;;;2.70;2.33;;;18.30;99.90;;;;;;5077521;28;20499;-75
2022/05/26 04:59:54;;;;;;;3.30;2.07;;;18.40;99.90;;;;;;5076927;28;20535;-74
2022/05/26 05:02:23;;;;;;;3.00;2.33;;;18.40;99.90;;;;;;5072976;28;20567;-74
2022/05/26 05:04:50;;;;;;;3.73;2.33;;;18.40;99.90;;;;;;5058300;28;20826;-69
2022/05/26 05:07:19;;;;;;;3.90;2.43;;;18.40;99.90;;;;;;5077175;28;20432;-69
2022/05/26 05:09:49;;;;;;;2.93;2.30;;;18.40;99.90;;;;;;5068042;28;20992;-69
2022/05/26 05:12:23;;;;;;;3.03;2.50;;;18.50;99.90;;;;;;5092616;28;20409;-69
2022/05/26 05:14:52;;;;;;;4.20;2.63;;;18.60;99.90;;;;;;5074526;28;20456;-69
2022/05/26 05:17:20;;;;;;;3.00;2.50;;;18.60;99.90;;;;;;5074010;28;20456;-69
2022/05/26 05:19:48;;;;;;;2.53;2.20;;;18.70;99.90;;;;;;5074416;28;20454;-75
2022/05/26 05:22:29;;;;;;;3.50;2.60;;;18.70;99.90;;;;;;5075211;28;20456;-75
2022/05/26 05:25:12;;;;;;;4.33;2.90;;;18.70;99.90;;;;;;5075023;28;20478;-68
2022/05/26 05:27:46;;;;;;;3.13;2.27;;;18.80;99.90;;;;;;5077222;28;20433;-75
2022/05/26 05:30:37;;;;;;;4.33;2.47;;;18.80;99.90;;;;;;5076375;28;21037;-75
2022/05/26 05:33:06;;;;;;;5.03;1.90;;;18.90;99.90;;;;;;5073912;28;20413;-75
2022/05/26 05:35:58;;;;;;;2.20;2.00;;;18.90;99.90;;;;;;5075116;28;20513;-74
2022/05/26 05:38:26;;;;;;;3.53;2.50;;;19.00;99.90;;;;;;5074323;28;20853;-69
2022/05/26 05:40:52;;;;;;;3.63;2.30;;;19.10;99.90;;;;;;5074381;28;20499;-75
2022/05/26 05:43:19;;;;;;;3.23;2.73;;;19.10;99.90;;;;;;5054718;28;20417;-68
2022/05/26 05:45:46;;;;;;;2.53;2.33;;;19.20;99.90;;;;;;5074137;28;20581;-74
2022/05/26 05:48:12;;;;;;;2.10;1.90;;;19.20;99.90;;;;;;5073066;28;20473;-69
2022/05/26 05:50:41;;;;;;;2.50;2.30;;;19.20;99.90;;;;;;5063983;28;20459;-69
2022/05/26 05:53:09;;;;;;;3.03;2.73;;;19.20;99.90;;;;;;5074005;28;20477;-69
2022/05/26 05:55:38;;;;;;;2.77;2.00;;;19.20;99.90;;;;;;5073598;28;21009;-71
2022/05/26 05:58:08;;;;;;;2.80;2.20;;;19.20;99.90;;;;;;5075000;28;20920;-77
2022/05/26 06:00:40;;;;;;;2.73;1.93;;;19.30;99.90;;;;;;5074373;28;20962;-77
2022/05/26 06:03:09;;;;;;;2.40;2.10;;;19.30;99.90;;;;;;5073873;28;20699;-71
2022/05/26 06:05:39;;;;;;;2.87;2.33;;;19.40;99.90;;;;;;5075535;28;20530;-75
2022/05/26 06:08:06;;;;;;;2.33;1.80;;;19.40;99.90;;;;;;5074882;28;20432;-77
2022/05/26 06:10:32;;;;;;;3.80;2.53;;;19.40;99.90;;;;;;5072486;28;20461;-77
2022/05/26 06:13:00;;;;;;;2.67;1.90;;;19.50;99.90;;;;;;5072205;28;20423;-77
2022/05/26 06:15:27;;;;;;;2.20;1.93;;;19.50;99.90;;;;;;5069430;28;20800;-76
2022/05/26 06:17:56;;;;;;;2.17;1.97;;;19.60;99.90;;;;;;5071083;28;20432;-77
2022/05/26 06:20:23;;;;;;;2.13;1.90;;;19.60;99.90;;;;;;5066665;28;20495;-77
2022/05/26 06:22:50;;;;;;;1.80;1.70;;;19.70;99.90;;;;;;5071289;28;20423;-71
2022/05/26 06:25:19;;;;;;;3.03;2.20;;;19.70;99.90;;;;;;5059619;28;20453;-71
2022/05/26 06:30:36;;;;;;;1.63;1.53;;;19.80;99.90;;;;;;5073663;28;20462;-72
2022/05/26 06:38:42;;;;;;;1.40;1.30;;;20.00;99.90;;;;;;5052471;28;21054;-78
2022/05/26 06:43:56;;;;;;;1.93;1.57;;;20.10;99.90;;;;;;5059355;28;20431;-78
2022/05/26 06:46:23;;;;;;;1.93;1.80;;;20.10;99.90;;;;;;5061740;28;20424;-78
2022/05/26 06:48:49;;;;;;;2.63;2.13;;;20.20;99.90;;;;;;5054226;28;20468;-72
2022/05/26 06:51:20;;;;;;;2.87;2.17;;;20.20;99.90;;;;;;5055788;28;20488;-77
2022/05/26 06:53:50;;;;;;;1.83;1.53;;;20.30;99.90;;;;;;5070976;28;20781;-78
2022/05/26 06:56:16;;;;;;;1.93;1.43;;;20.40;99.90;;;;;;5057992;28;21027;-78
2022/05/26 06:58:46;;;;;;;3.43;2.03;;;20.40;99.90;;;;;;5071221;28;20433;-72
2022/05/26 07:01:17;;;;;;;2.60;1.50;;;20.50;99.90;;;;;;5055290;28;20759;-78
2022/05/26 07:03:43;;;;;;;1.67;1.50;;;20.50;99.90;;;;;;5053504;28;20210;-77
2022/05/26 07:06:24;;;;;;;2.40;1.63;;;20.50;99.90;;;;;;5055078;28;20433;-72
2022/05/26 07:08:50;;;;;;;1.93;1.70;;;20.60;99.90;;;;;;5052299;28;20311;-72
2022/05/26 07:11:21;;;;;;;1.80;1.63;;;20.60;99.90;;;;;;5052979;28;20432;-72
2022/05/26 07:13:50;;;;;;;1.40;1.30;;;20.70;99.90;;;;;;5054325;28;20510;-78
2022/05/26 07:16:23;;;;;;;3.80;1.30;;;20.80;99.90;;;;;;5054412;28;20476;-78
2022/05/26 07:18:53;;;;;;;1.73;1.63;;;20.80;99.90;;;;;;5060793;28;20479;-72
2022/05/26 07:21:21;;;;;;;1.50;1.40;;;20.90;99.90;;;;;;5053764;28;21055;-72
2022/05/26 07:23:49;;;;;;;1.60;1.50;;;21.00;99.90;;;;;;5063870;28;20965;-72
2022/05/26 07:26:16;;;;;;;12.57;4.70;;;21.00;99.90;;;;;;5062077;28;20446;-71
2022/05/26 07:28:45;;;;;;;5.70;1.93;;;21.10;99.90;;;;;;5065867;28;20614;-78
2022/05/26 07:31:15;;;;;;;1.50;1.40;;;21.20;99.90;;;;;;5068088;28;20440;-72
2022/05/26 07:33:44;;;;;;;1.80;1.50;;;21.30;99.90;;;;;;5065266;28;20810;-72
2022/05/26 07:41:16;;;;;;;1.47;1.37;;;21.30;99.90;;;;;;5065717;28;20955;-78
2022/05/26 07:41:42;;;;;;;1.60;1.50;;;21.40;99.90;;;;;;5069496;28;20440;-76
2022/05/26 07:44:09;;;;;;;1.07;1.00;;;21.50;99.90;;;;;;5068262;28;20440;-76
2022/05/26 07:46:38;;;;;;;1.50;1.40;;;21.50;99.90;;;;;;5064491;28;20871;-70
2022/05/26 07:49:06;;;;;;;1.00;1.00;;;21.50;99.90;;;;;;5066102;28;21016;-70
2022/05/26 07:51:33;;;;;;;1.90;1.60;;;21.60;99.90;;;;;;5065433;28;20482;-70
2022/05/26 07:54:02;;;;;;;1.70;1.60;;;21.60;99.90;;;;;;5082782;28;20528;-70
2022/05/26 07:56:32;;;;;;;2.80;2.03;;;21.70;99.90;;;;;;5066778;28;20433;-76
2022/05/26 07:58:58;;;;;;;1.80;1.13;;;21.70;99.90;;;;;;5063831;28;20456;-70
2022/05/26 08:01:25;;;;;;;2.00;1.60;;;21.90;99.90;;;;;;5068791;28;20421;-76
2022/05/26 08:03:53;;;;;;;3.17;1.40;;;21.90;99.90;;;;;;5069760;28;20410;-76
2022/05/26 08:06:56;;;;;;;1.97;1.13;;;22.00;99.90;;;;;;5070892;28;20437;-77
2022/05/26 08:09:28;;;;;;;1.27;1.17;;;22.10;99.90;;;;;;5065311;28;21029;-78
2022/05/26 08:11:58;;;;;;;1.63;1.37;;;22.20;99.90;;;;;;5061404;28;20521;-72
2022/05/26 08:14:26;;;;;;;1.43;1.33;;;22.20;99.90;;;;;;5071649;28;20978;-72
2022/05/26 08:16:52;;;;;;;1.00;1.00;;;22.30;99.90;;;;;;5071060;28;20421;-78
2022/05/26 08:19:18;;;;;;;1.40;1.30;;;22.40;99.90;;;;;;5068700;28;20461;-76
2022/05/26 08:21:45;;;;;;;0.87;0.80;;;22.40;99.90;;;;;;5073199;28;20228;-72
2022/05/26 08:24:25;;;;;;;1.20;1.10;;;22.50;99.90;;;;;;5073399;28;20476;-72
2022/05/26 08:27:14;;;;;;;1.60;1.50;;;22.60;99.90;;;;;;5072401;28;20766;-72
2022/05/26 08:30:03;;;;;;;1.40;1.30;;;22.60;99.90;;;;;;5074237;28;20850;-78
2022/05/26 08:32:30;;;;;;;2.07;1.20;;;22.70;99.90;;;;;;5055589;28;20442;-72
2022/05/26 08:35:02;;;;;;;0.87;0.87;;;22.70;99.90;;;;;;5072140;28;20798;-78
2022/05/26 08:37:31;;;;;;;1.37;1.27;;;22.80;99.90;;;;;;5070120;28;20418;-72
2022/05/26 08:39:59;;;;;;;1.87;1.60;;;22.90;99.90;;;;;;5068289;28;20457;-74
2022/05/26 08:42:33;;;;;;;1.33;1.23;;;22.90;99.90;;;;;;5071271;28;20456;-72
2022/05/26 08:45:12;;;;;;;1.20;1.10;;;23.00;99.90;;;;;;5068140;28;20860;-72
2022/05/26 08:47:51;;;;;;;1.47;1.37;;;23.00;99.90;;;;;;5063641;28;20586;-72
2022/05/26 08:50:27;;;;;;;1.30;1.20;;;23.10;99.90;;;;;;5068405;28;20986;-78
2022/05/26 08:53:15;;;;;;;1.10;1.00;;;23.10;99.90;;;;;;5068902;28;20436;-78
2022/05/26 08:55:43;;;;;;;1.50;1.20;;;23.10;99.90;;;;;;5072245;28;20466;-78
2022/05/26 08:58:20;;;;;;;1.40;1.30;;;23.10;99.90;;;;;;5070213;28;20437;-78
2022/05/26 09:00:48;;;;;;;1.27;1.17;;;23.10;99.90;;;;;;5066894;28;20458;-75
2022/05/26 09:03:33;;;;;;;1.57;1.47;;;23.10;99.90;;;;;;5067267;28;20820;-72
2022/05/26 09:06:18;;;;;;;1.40;1.20;;;23.10;99.90;;;;;;5071349;28;20445;-78
2022/05/26 09:14:29;;;;;;;2.10;1.40;;;23.10;99.90;;;;;;5069787;28;20445;-78
2022/05/26 09:17:17;;;;;;;1.47;1.37;;;23.10;99.90;;;;;;5065592;28;20429;-72
2022/05/26 09:20:55;;;;;;;1.73;1.33;;;23.20;99.90;;;;;;5069451;28;20474;-78
2022/05/26 09:23:29;;;;;;;1.37;1.20;;;23.20;99.90;;;;;;5031168;28;21011;-72
2022/05/26 09:26:07;;;;;;;1.20;1.10;;;23.20;99.90;;;;;;5031208;28;20484;-77
2022/05/26 09:28:48;;;;;;;1.63;1.50;;;23.30;99.90;;;;;;5071451;28;20512;-78
2022/05/26 09:31:34;;;;;;;1.80;1.50;;;23.40;99.90;;;;;;5071573;28;20544;-78
2022/05/26 09:34:08;;;;;;;1.10;1.10;;;23.40;99.90;;;;;;5071777;28;20441;-78
2022/05/26 09:36:46;;;;;;;1.50;1.40;;;23.50;99.90;;;;;;5072756;28;20470;-72
2022/05/26 09:39:15;;;;;;;1.37;1.27;;;23.50;99.90;;;;;;5075567;28;20898;-72
2022/05/26 09:41:46;;;;;;;1.80;1.10;;;23.50;99.90;;;;;;5075438;28;20881;-72
2022/05/26 09:44:30;;;;;;;1.33;1.20;;;23.50;99.90;;;;;;5071148;28;20548;-76
2022/05/26 09:47:37;;;;;;;1.00;1.00;;;23.50;99.90;;;;;;5073129;28;20971;-71
2022/05/26 09:50:38;;;;;;;1.80;1.30;;;23.50;99.90;;;;;;5060985;28;20606;-71
2022/05/26 09:53:12;;;;;;;1.00;1.00;;;23.50;99.90;;;;;;5065336;28;20448;-76
2022/05/26 09:55:56;;;;;;;1.37;1.27;;;23.50;99.90;;;;;;5072790;28;20521;-76
2022/05/26 09:58:34;;;;;;;1.30;1.20;;;23.60;99.90;;;;;;5091340;28;20945;-71
2022/05/26 10:01:26;;;;;;;1.10;1.00;;;23.60;99.90;;;;;;5069290;28;20464;-77
2022/05/26 10:04:25;;;;;;;1.27;1.17;;;23.70;99.90;;;;;;5069376;28;20428;-71
2022/05/26 10:07:35;;;;;;;1.50;1.40;;;23.80;99.90;;;;;;5059208;28;20949;-76
2022/05/26 10:10:03;;;;;;;1.50;1.40;;;23.90;99.90;;;;;;5025738;28;20879;-71
2022/05/26 10:12:45;;;;;;;1.33;1.23;;;23.90;99.90;;;;;;5071725;28;20815;-77
2022/05/26 10:15:29;;;;;;;1.70;1.50;;;23.90;99.90;;;;;;5072668;28;20462;-71
2022/05/26 10:18:32;;;;;;;1.40;1.23;;;23.90;99.90;;;;;;5073497;28;20418;-71
2022/05/26 10:21:24;;;;;;;1.57;1.47;;;23.90;99.90;;;;;;5055436;28;20830;-71
2022/05/26 10:24:30;;;;;;;1.83;1.50;;;23.90;99.90;;;;;;5075355;28;20441;-76
2022/05/26 10:27:16;;;;;;;2.00;1.50;;;24.00;99.90;;;;;;5100883;28;20423;-75
2022/05/26 10:30:20;;;;;;;1.30;1.07;;;24.00;99.90;;;;;;5095684;28;20487;-71
2022/05/26 10:33:26;;;;;;;2.00;1.30;;;24.10;99.90;;;;;;5072968;28;20582;-71
2022/05/26 10:36:27;;;;;;;1.43;1.00;;;24.00;99.90;;;;;;5086807;28;20469;-71
2022/05/26 10:39:23;;;;;;;1.13;1.00;;;24.10;99.90;;;;;;5075794;28;20432;-71
2022/05/26 10:42:29;;;;;;;1.20;1.10;;;24.20;99.90;;;;;;5072516;28;20438;-75
2022/05/26 10:45:47;;;;;;;1.17;1.17;;;24.30;99.90;;;;;;5070001;28;20477;-71
2022/05/26 10:49:13;;;;;;;1.60;1.20;;;24.50;99.90;;;;;;5060814;28;20431;-77
2022/05/26 10:53:00;;;;;;;1.10;0.90;;;24.60;98.80;;;;;;5081648;28;20515;-72
2022/05/26 10:59:43;;;;;;;1.00;1.00;;;24.80;98.50;;;;;;5124373;28;20480;-74
2022/05/26 11:02:58;;;;;;;1.30;1.20;;;24.90;98.40;;;;;;5111685;28;20441;-73
2022/05/26 11:05:38;;;;;;;1.63;1.53;;;24.90;97.20;;;;;;5037486;28;20457;-79
2022/05/26 11:08:50;;;;;;;1.37;1.27;;;25.00;97.90;;;;;;5106529;28;20772;-79
2022/05/26 11:11:23;;;;;;;1.60;1.50;;;25.00;98.30;;;;;;5105349;28;20449;-72
2022/05/26 11:14:06;;;;;;;1.50;1.40;;;25.00;98.40;;;;;;5102295;28;20443;-76
2022/05/26 11:19:58;;;;;;;4.10;1.13;;;25.10;96.70;;;;;;5122921;27;20444;-77
2022/05/26 11:22:25;;;;;;;2.00;1.50;;;25.20;97.60;;;;;;5109896;27;20441;-71
2022/05/26 11:24:53;;;;;;;1.50;1.40;;;25.20;95.50;;;;;;5105925;27;20449;-71
2022/05/26 11:27:27;;;;;;;1.40;1.30;;;25.30;97.70;;;;;;5120107;27;20421;-74
2022/05/26 11:36:13;;;;;;;1.20;1.10;;;25.20;99.50;;;;;;5130778;27;21221;-74
2022/05/26 11:38:49;;;;;;;1.63;1.40;;;25.20;98.30;;;;;;5106009;28;20818;-70
2022/05/26 11:41:24;;;;;;;1.63;1.53;;;25.20;97.40;;;;;;5106315;27;20418;-70
2022/05/26 11:43:59;;;;;;;1.77;1.23;;;25.30;97.10;;;;;;5111828;27;20510;-75
2022/05/26 11:46:56;;;;;;;1.30;1.20;;;25.30;97.20;;;;;;5112777;28;20521;-70
2022/05/26 11:49:51;;;;;;;1.20;1.10;;;25.40;96.10;;;;;;5123512;27;20478;-70
2022/05/26 11:52:34;;;;;;;1.73;1.20;;;25.50;95.80;;;;;;5108024;27;20797;-70
2022/05/26 11:55:02;;;;;;;3.77;1.40;;;25.50;95.10;;;;;;5102537;27;20748;-70
2022/05/26 11:57:46;;;;;;;3.13;1.40;;;25.50;94.50;;;;;;5102685;28;20487;-74
2022/05/26 12:00:37;;;;;;;1.10;1.00;;;25.50;96.80;;;;;;5086463;28;20455;-74
2022/05/26 12:03:27;;;;;;;0.97;0.97;;;25.50;94.40;;;;;;5084964;28;20450;-74
2022/05/26 12:06:16;;;;;;;1.33;1.23;;;25.50;94.30;;;;;;5084516;28;20443;-75
2022/05/26 12:09:17;;;;;;;7.33;1.50;;;25.60;93.60;;;;;;5090939;28;20993;-73
2022/05/26 12:12:10;;;;;;;2.27;1.30;;;25.60;93.80;;;;;;5091494;28;20432;-72
2022/05/26 12:14:55;;;;;;;3.50;1.20;;;25.70;94.90;;;;;;5088741;28;20470;-74
2022/05/26 12:17:32;;;;;;;3.20;1.50;;;25.80;95.20;;;;;;5087419;28;20423;-72
2022/05/26 12:20:19;;;;;;;1.20;1.10;;;25.80;93.60;;;;;;5107541;27;20562;-72
2022/05/26 12:22:54;;;;;;;1.20;1.10;;;25.80;94.10;;;;;;5076179;28;20427;-75
2022/05/26 12:25:34;;;;;;;1.67;1.50;;;25.90;93.60;;;;;;5119170;27;20451;-72
2022/05/26 12:28:14;;;;;;;2.50;1.80;;;25.90;93.90;;;;;;5085043;28;20463;-72
2022/05/26 12:30:46;;;;;;;1.97;1.20;;;26.00;94.50;;;;;;5093897;28;20467;-72
2022/05/26 12:33:18;;;;;;;1.70;1.13;;;26.00;93.80;;;;;;5107710;28;20471;-74
2022/05/26 12:35:49;;;;;;;1.07;1.07;;;26.00;94.10;;;;;;5092626;28;20462;-72
2022/05/26 12:38:32;;;;;;;3.40;1.33;;;26.10;92.60;;;;;;5095756;28;20933;-71
2022/05/26 12:41:03;;;;;;;4.73;1.50;;;26.10;92.10;;;;;;5095840;28;20960;-72
2022/05/26 12:44:02;;;;;;;1.33;1.00;;;26.10;92.40;;;;;;5095028;28;20425;-74
2022/05/26 12:46:40;;;;;;;1.20;1.10;;;26.10;92.30;;;;;;5091452;28;20894;-74
2022/05/26 12:49:39;;;;;;;2.67;1.27;;;26.10;91.60;;;;;;5163237;22;20452;-75
2022/05/26 12:52:28;;;;;;;3.40;1.40;;;26.20;91.50;;;;;;5072032;28;20447;-72
2022/05/26 12:55:18;;;;;;;2.10;1.10;;;26.20;92.30;;;;;;5087349;28;21037;-72
2022/05/26 12:58:06;;;;;;;1.23;1.13;;;26.20;92.40;;;;;;5056618;28;20424;-74
2022/05/26 13:00:53;;;;;;;5.03;1.30;;;26.20;92.50;;;;;;5009889;28;20985;-72
2022/05/26 13:03:27;;;;;;;1.20;1.03;;;26.20;92.30;;;;;;5051545;28;20830;-74
2022/05/26 13:06:10;;;;;;;1.50;1.40;;;26.20;92.50;;;;;;5077968;28;20454;-73
2022/05/26 13:09:02;;;;;;;1.60;1.50;;;26.30;91.40;;;;;;5043690;28;20468;-74
2022/05/26 13:11:33;;;;;;;1.33;1.23;;;26.30;91.30;;;;;;5072957;28;20453;-72
2022/05/26 13:14:07;;;;;;;1.87;1.60;;;26.30;91.20;;;;;;5051456;28;20548;-74
2022/05/26 13:16:37;;;;;;;1.43;1.33;;;26.40;91.10;;;;;;5049547;28;20425;-74
2022/05/26 13:19:21;;;;;;;1.60;1.50;;;26.40;90.90;;;;;;5050057;28;20617;-73
2022/05/26 13:21:50;;;;;;;2.03;1.50;;;26.40;91.20;;;;;;5049711;28;21021;-75
2022/05/26 13:24:23;;;;;;;2.60;1.53;;;26.40;91.40;;;;;;5045708;28;20461;-73
2022/05/26 13:26:55;;;;;;;1.37;1.20;;;26.40;91.30;;;;;;5046485;28;20464;-71
2022/05/26 13:29:24;;;;;;;1.50;1.30;;;26.40;91.30;;;;;;5050835;28;20571;-74
2022/05/26 13:34:49;;;;;;;5.30;2.00;;;26.50;91.00;;;;;;5081255;28;20543;-72
2022/05/26 13:37:26;;;;;;;3.90;1.70;;;26.50;91.70;;;;;;5050935;28;20437;-71
2022/05/26 13:40:11;;;;;;;1.50;1.33;;;26.50;91.40;;;;;;5047757;28;21246;-72
2022/05/26 13:42:42;;;;;;;1.87;1.77;;;26.50;91.30;;;;;;5053839;28;20787;-72
2022/05/26 13:45:24;;;;;;;1.70;1.60;;;26.50;90.90;;;;;;5054156;28;20469;-74
2022/05/26 13:47:51;;;;;;;1.90;1.80;;;26.40;90.50;;;;;;5060847;28;20950;-73
2022/05/26 13:51:00;;;;;;;2.07;1.80;;;26.40;90.30;;;;;;5052956;28;20500;-73
2022/05/26 13:53:28;;;;;;;2.17;1.70;;;26.40;91.00;;;;;;5077792;28;20494;-72
2022/05/26 13:55:57;;;;;;;2.00;1.80;;;26.40;91.00;;;;;;5087788;28;20445;-71
2022/05/26 13:58:27;;;;;;;2.13;1.93;;;26.40;91.00;;;;;;5052783;28;20418;-72
2022/05/26 14:01:13;;;;;;;1.60;1.50;;;26.40;91.10;;;;;;5043476;28;20457;-72
2022/05/26 14:03:41;;;;;;;1.83;1.57;;;26.30;91.40;;;;;;5059447;28;20779;-71
2022/05/26 14:06:39;;;;;;;1.67;1.57;;;26.40;91.80;;;;;;5043665;28;20455;-71
2022/05/26 14:09:38;;;;;;;2.50;1.90;;;26.30;91.60;;;;;;5036736;28;20511;-72
2022/05/26 14:12:23;;;;;;;2.67;2.10;;;26.30;91.20;;;;;;5050118;28;20440;-73
2022/05/26 14:15:10;;;;;;;1.93;1.73;;;26.40;91.40;;;;;;5050563;28;20514;-71
2022/05/26 14:17:57;;;;;;;2.43;1.53;;;26.40;91.30;;;;;;5046636;28;20545;-73